Startpagina
METAR-TAF:

METAR-TAF

Vliegvelden :

Machala, Ecuador

breedte: 03-26-07S, lengte: 079-58-40W, hoogte: 52 m

Actueel weer

Dit bericht is 8 uur en het 6 minuten geleden gemaakt, om 02:00 UTC
Wind 2 kt uit het oostnoordoosten
Temperatuur 23°C
Vochtigheid 89%
Druk 1012 hPa
Zicht 10 km of meer
Gebroken wolken op 1600 ft
Gebroken wolken op 8000 ft

METAR: SERO 170200Z 07002KT 9999 BKN016 BKN080 23/21 Q1012

Tijdstip: 05:06 (10:06 UTC)


TAF: ontbreekt

Waarnemingen en weersverwachtingen van meer dan 4000 vliegvelden (METAR en TAF).

De beschikbare stations zijn de gele en rode punten op de kaart.

Ga met uw muis naar het station om de naam te zien.

Klik dan om waarnemingen en weersverwachtingen te zien.

kaart wijzigen: klik op de groene knoppen met een zwart kruis om in te zoomen, op de groene knop met een streepje om uit te zoomen of op de groene pijlen voor aangrenzende kaarten.


METAR-TAF: